| Min | Max / Total | Moy | |
|---|---|---|---|
| T° | 13.5°c | 19.7°c | 16.6°c (ecart -2.2°) |
| Vent moyen | - | 8 km/h | 2.7 km/h |
| Vent rafale | - | 10 km/h | 4.3 km/h |
| Pression | 1021.9 hPa | 1023.1 hPa | 1022.3 hPa |
| Précipitations | - | 0 mm | - |
Actuellement
T°ext 22.8°C
H% ext 71 %
Vent 10 km/h / Maxi 13 km/h S
Pression 1020.2 hPa
Donnée détaillées (10 min)
| Date | Tempé | Tempé. INT | Tempé. rosée | H% | Vmoy.(km/h) | Rafales (km/h) | Dir. vent | Intensité pluie (L/m²/h) | Tot pluie 24h (L/m²) | Pression (hPa) |
|---|---|---|---|---|---|---|---|---|---|---|
| 08:30 | 13.8 ° | 23.3 ° | 11.5 ° | 86 % | 0 | - | SSO | 0.0 | 0.0 | 1023.1 |
| 08:20 | 13.8 ° | 23.3 ° | 11.5 ° | 86 % | 0 | - | SSO | 0.0 | 0.0 | 1023.0 |
| 08:10 | 13.7 ° | 23.2 ° | 11.4 ° | 86 % | 0 | - | S | 0.0 | 0.0 | 1022.8 |
| 08:00 | 13.7 ° | 23.2 ° | 11.4 ° | 86 % | 0 | - | S | 0.0 | 0.0 | 1022.8 |
| 07:50 | 13.6 ° | 23.2 ° | 11.3 ° | 86 % | 6 | 8 | S | 0.0 | 0.0 | 1022.7 |
| 07:40 | 13.6 ° | 23.2 ° | 11.1 ° | 85 % | 4 | 5 | SO | 0.0 | 0.0 | 1022.7 |
| 07:30 | 13.5 ° | 23.3 ° | 11.0 ° | 85 % | 5 | - | OSO | 0.0 | 0.0 | 1022.5 |
| 07:20 | 13.6 ° | 23.3 ° | 11.1 ° | 85 % | 0 | - | OSO | 0.0 | 0.0 | 1022.5 |
| 07:10 | 13.6 ° | 23.3 ° | 11.1 ° | 85 % | 0 | - | OSO | 0.0 | 0.0 | 1022.4 |
| 07:00 | 13.7 ° | 23.3 ° | 11.0 ° | 84 % | 0 | - | OSO | 0.0 | 0.0 | 1022.3 |
| 06:50 | 13.8 ° | 23.3 ° | 11.8 ° | 88 % | 0 | - | SO | 0.0 | 0.0 | 1022.3 |
| 06:40 | 13.9 ° | 23.3 ° | 12.5 ° | 91 % | 0 | - | SO | 0.0 | 0.0 | 1022.3 |
| 06:30 | 14.0 ° | 23.3 ° | 11.7 ° | 86 % | 2 | 3 | SO | 0.0 | 0.0 | 1022.1 |
| 06:20 | 14.1 ° | 23.4 ° | 11.3 ° | 83 % | 3 | 5 | SO | 0.0 | 0.0 | 1022.2 |
| 06:10 | 14.3 ° | 23.4 ° | 11.4 ° | 83 % | 3 | 5 | SO | 0.0 | 0.0 | 1022.2 |
| 06:00 | 14.4 ° | 23.4 ° | 11.4 ° | 82 % | 3 | 5 | OSO | 0.0 | 0.0 | 1022.1 |
| 05:50 | 14.6 ° | 23.4 ° | 11.4 ° | 81 % | 2 | 3 | OSO | 0.0 | 0.0 | 1022.0 |
| 05:40 | 14.8 ° | 23.4 ° | 11.8 ° | 82 % | 2 | 3 | OSO | 0.0 | 0.0 | 1022.0 |
| 05:30 | 15.0 ° | 23.4 ° | 11.6 ° | 80 % | 0 | - | OSO | 0.0 | 0.0 | 1022.1 |
| 05:20 | 15.3 ° | 23.4 ° | 11.9 ° | 80 % | 0 | - | OSO | 0.0 | 0.0 | 1022.2 |
| 05:10 | 15.5 ° | 23.5 ° | 11.9 ° | 79 % | 2 | 3 | OSO | 0.0 | 0.0 | 1022.2 |
| 05:00 | 15.7 ° | 23.5 ° | 12.1 ° | 79 % | 2 | 5 | OSO | 0.0 | 0.0 | 1022.3 |
| 04:50 | 15.9 ° | 23.5 ° | 12.3 ° | 79 % | 2 | 3 | OSO | 0.0 | 0.0 | 1022.4 |
| 04:40 | 15.9 ° | 23.5 ° | 12.1 ° | 78 % | 2 | 5 | OSO | 0.0 | 0.0 | 1022.4 |
| 04:30 | 16.0 ° | 23.5 ° | 12.2 ° | 78 % | 2 | 5 | OSO | 0.0 | 0.0 | 1022.4 |
| 04:20 | 16.0 ° | 23.5 ° | 12.0 ° | 77 % | 3 | 5 | OSO | 0.0 | 0.0 | 1022.3 |
| 04:10 | 16.1 ° | 23.5 ° | 12.1 ° | 77 % | 3 | 5 | OSO | 0.0 | 0.0 | 1022.4 |
| 04:00 | 16.0 ° | 23.5 ° | 12.0 ° | 77 % | 4 | 5 | OSO | 0.0 | 0.0 | 1022.4 |
| 03:50 | 16.0 ° | 23.5 ° | 12.0 ° | 77 % | 3 | 5 | SO | 0.0 | 0.0 | 1022.4 |
| 03:40 | 16.0 ° | 23.6 ° | 11.8 ° | 76 % | 4 | 5 | OSO | 0.0 | 0.0 | 1022.5 |
| 03:30 | 16.0 ° | 23.6 ° | 11.6 ° | 75 % | 3 | 5 | OSO | 0.0 | 0.0 | 1022.5 |
| 03:20 | 16.1 ° | 23.6 ° | 11.5 ° | 74 % | 3 | 5 | OSO | 0.0 | 0.0 | 1022.4 |
| 03:10 | 16.3 ° | 23.6 ° | 11.4 ° | 73 % | 1 | 3 | SO | 0.0 | 0.0 | 1022.4 |
| 03:00 | 16.4 ° | 23.6 ° | 11.3 ° | 72 % | 0 | 3 | SO | 0.0 | 0.0 | 1022.5 |
| 02:50 | 16.6 ° | 23.6 ° | 12.7 ° | 78 % | 0 | 3 | SO | 0.0 | 0.0 | 1022.4 |
| 02:40 | 16.9 ° | 23.6 ° | 12.8 ° | 77 % | 0 | 3 | SO | 0.0 | 0.0 | 1022.4 |
| 02:30 | 17.3 ° | 23.7 ° | 12.6 ° | 74 % | 5 | 5 | SO | 0.0 | 0.0 | 1022.5 |
| 02:20 | 17.6 ° | 23.7 ° | 12.9 ° | 74 % | 4 | 5 | O | 0.0 | 0.0 | 1022.5 |
| 02:10 | 17.6 ° | 23.7 ° | 12.7 ° | 73 % | 5 | 8 | O | 0.0 | 0.0 | 1022.5 |
| 02:00 | 17.8 ° | 23.7 ° | 12.7 ° | 72 % | 6 | 10 | ONO | 0.0 | 0.0 | 1022.5 |
| 01:50 | 18.1 ° | 23.7 ° | 12.8 ° | 71 % | 8 | 10 | ONO | 0.0 | 0.0 | 1022.3 |
| 01:40 | 18.3 ° | 23.7 ° | 12.1 ° | 67 % | 4 | 8 | ONO | 0.0 | 0.0 | 1022.2 |
| 01:30 | 18.3 ° | 23.7 ° | 11.6 ° | 65 % | 6 | 8 | OSO | 0.0 | 0.0 | 1022.3 |
| 01:20 | 18.4 ° | 23.8 ° | 11.7 ° | 65 % | 5 | 8 | SO | 0.0 | 0.0 | 1022.1 |
| 01:10 | 18.6 ° | 23.8 ° | 12.3 ° | 67 % | 4 | 5 | NNO | 0.0 | 0.0 | 1021.9 |
| 01:00 | 18.8 ° | 23.8 ° | 13.0 ° | 69 % | 2 | 3 | NNO | 0.0 | 0.0 | 1022.0 |
| 00:50 | 19.1 ° | 23.8 ° | 13.1 ° | 68 % | 1 | 3 | NNO | 0.0 | 0.0 | 1022.0 |
| 00:40 | 19.4 ° | 23.8 ° | 13.6 ° | 69 % | 4 | 8 | NNO | 0.0 | 0.0 | 1021.9 |
| 00:30 | 19.5 ° | 23.8 ° | 13.7 ° | 69 % | 6 | 8 | NO | 0.0 | 0.0 | 1022.1 |
| 00:20 | 19.7 ° | 23.8 ° | 14.1 ° | 70 % | 6 | 8 | O | 0.0 | 0.0 | 1022.1 |
| 00:10 | 19.7 ° | 23.7 ° | 14.3 ° | 71 % | 7 | 10 | NNO | 0.0 | 0.0 | 1022.0 |
Donnée détaillées horaires
| Date | Tempé min. | Tempé max. | Max solar Rad (W/m2). | Tempé. INT | Tempé. rosée | H% | Vmoy.(km/h) | Rafales (km/h) | Dir. vent | Intensité pluie (L/m²/h) | Tot pluie 24h (L/m²) | Pression (hPa) |
|---|---|---|---|---|---|---|---|---|---|---|---|---|
| 08:00 | 13.7 ° | 13.8 ° | 34 | 23.3 ° | 11.4 ° | 86 % | 0 | - | S | 0.0 | 0.0 | 1022.8 |
| 07:00 | 13.5 ° | 13.7 ° | 11 | 23.3 ° | 11.0 ° | 84 % | 6 | 8 | OSO | 0.0 | 0.0 | 1022.3 |
| 06:00 | 13.8 ° | 14.4 ° | 0 | 23.4 ° | 11.4 ° | 82 % | 3 | 5 | OSO | 0.0 | 0.0 | 1022.1 |
| 05:00 | 14.6 ° | 15.7 ° | 0 | 23.4 ° | 12.1 ° | 79 % | 2 | 5 | OSO | 0.0 | 0.0 | 1022.3 |
| 04:00 | 15.9 ° | 16.1 ° | 0 | 23.5 ° | 12.0 ° | 77 % | 4 | 5 | OSO | 0.0 | 0.0 | 1022.4 |
| 03:00 | 16.0 ° | 16.4 ° | 0 | 23.6 ° | 11.3 ° | 72 % | 4 | 5 | SO | 0.0 | 0.0 | 1022.5 |
| 02:00 | 16.6 ° | 17.8 ° | 0 | 23.7 ° | 12.7 ° | 72 % | 6 | 10 | ONO | 0.0 | 0.0 | 1022.5 |
| 01:00 | 18.1 ° | 18.8 ° | 0 | 23.8 ° | 13.0 ° | 69 % | 8 | 10 | NNO | 0.0 | 0.0 | 1022.0 |
| 00:00 | 19.1 ° | 19.7 ° | 0 | 23.8 ° | 14.5 ° | 72 % | 7 | 10 | O | 0.0 | 0.0 | 1021.9 |
Données mensuelles (Septembre 2026)
| Jour | Tempé. min | Tempé. max | Tempé. moy | Tempé. IN moy | Ecart saisonnier | Vent moy. max jour | Rafale max jour | Tot. pluie jour |
|---|---|---|---|---|---|---|---|---|
| M01 | 12.1° | 26.3° | 19.2° | 23.6° | +0.4 °C | 16 km/h | 29 km/h | 0.0 mm |
| M02 | 13.5° | 19.7° | 16.6° | 23.5° | -2.2 °C | 8 km/h | 10 km/h | 0.0 mm |
| J03 | 12.3° | 29.6° | 21° | 23.7° | +2.2 °C | 13 km/h | 19 km/h | 0.0 mm |
| V04 | 14.4° | 34.2° | 24.3° | 24° | +5.5 °C | 19 km/h | 35 km/h | 0.0 mm |
| S05 | 16.5° | 31.6° | 24.1° | 23.9° | +5.3 °C | 14 km/h | 24 km/h | 0.0 mm |
| D06 | 20.1° | 22.8° | 21.5° | 24.3° | +2.7 °C | 17 km/h | 29 km/h | 0.0 mm |
Moy Tmin 14.8°C - Moy Tmax 27.4°C
Tmin 12.1°C - Tmax 34.2°C
Température moyenne mensuelle : 21.1 °C (ecart saisonnier +2.3°)
Rafale Maxi : 34.6 km/h
Moyenne vent : 14.42 km/h
Total précipitations : 0 mm (-81.2 mm)